createdAt,value
2023-04-13T00:04:37.710Z,65.08
2023-04-13T00:28:59.707Z,66.38
2023-04-13T00:34:15.964Z,66.33
2023-04-13T00:40:21.590Z,66.41
2023-04-13T00:45:45.110Z,66.17
2023-04-13T00:51:16.718Z,66.19
2023-04-13T00:56:58.140Z,66.44
2023-04-13T01:02:08.017Z,66.62
2023-04-13T01:08:06.401Z,66.51
2023-04-13T01:13:21.846Z,66.36
2023-04-13T01:24:35.149Z,66.49
2023-04-13T01:30:51.141Z,66.59
2023-04-13T01:36:03.018Z,66.57
2023-04-13T01:49:04.247Z,66.54
2023-04-13T01:54:26.023Z,66.75
2023-04-13T01:59:32.458Z,66.67
2023-04-13T02:43:00.699Z,66.40
2023-04-13T02:48:27.869Z,66.20
2023-04-13T02:53:49.575Z,65.97
2023-04-13T03:05:13.585Z,66.36
2023-04-13T03:10:21.495Z,66.70
2023-04-13T03:21:48.863Z,67.19
2023-04-13T03:27:27.539Z,67.55
2023-04-13T03:45:24.149Z,66.39
2023-04-13T03:50:28.855Z,66.44
2023-04-13T03:55:32.533Z,66.11
2023-04-13T04:00:41.479Z,66.05
2023-04-13T04:05:48.698Z,66.33
2023-04-13T04:10:52.253Z,66.83
2023-04-13T04:15:57.108Z,67.05
2023-04-13T04:21:03.144Z,66.77
2023-04-13T04:26:29.299Z,67.01
2023-04-13T04:32:28.591Z,67.28
2023-04-13T04:42:54.602Z,68.24
2023-04-13T05:04:50.034Z,68.21
2023-04-13T05:09:57.515Z,68.01
2023-04-13T05:15:45.620Z,67.91
2023-04-13T05:21:31.239Z,67.87
2023-04-13T05:26:44.121Z,68.17
2023-04-13T05:31:50.584Z,68.09
2023-04-13T05:37:21.963Z,67.82
2023-04-13T05:48:12.879Z,67.59
2023-04-13T05:53:19.168Z,67.42
2023-04-13T05:58:28.674Z,67.29
2023-04-13T06:03:52.823Z,67.01
2023-04-13T06:08:58.856Z,66.49
2023-04-13T06:14:03.539Z,65.82
2023-04-13T06:19:07.993Z,65.41
2023-04-13T06:24:12.303Z,65.20
2023-04-13T06:29:49.023Z,65.08
2023-04-13T06:36:04.912Z,65.26
2023-04-13T06:43:19.030Z,65.74
2023-04-13T06:54:10.165Z,65.40
2023-04-13T06:59:17.365Z,65.08
2023-04-13T07:04:39.670Z,64.77
2023-04-13T07:09:44.470Z,64.88
2023-04-13T07:14:49.726Z,64.45
2023-04-13T07:19:55.887Z,64.04
2023-04-13T07:25:00.203Z,63.56
2023-04-13T07:30:09.512Z,63.49
2023-04-13T07:35:17.884Z,63.17
2023-04-13T07:40:22.210Z,63.28
2023-04-13T07:45:36.952Z,62.76
2023-04-13T07:50:44.648Z,62.50
2023-04-13T07:55:52.119Z,61.91
2023-04-13T08:01:07.563Z,61.49
2023-04-13T08:06:12.143Z,60.97
2023-04-13T08:11:17.191Z,60.54
2023-04-13T08:16:22.391Z,60.47
2023-04-13T08:21:26.848Z,60.53
2023-04-13T08:26:31.129Z,60.01
2023-04-13T08:31:36.248Z,59.75
2023-04-13T08:36:41.698Z,59.22
2023-04-13T08:41:48.021Z,58.70
2023-04-13T08:46:53.867Z,58.10
2023-04-13T08:52:06.915Z,56.55
2023-04-13T08:57:12.977Z,55.68
2023-04-13T09:07:57.077Z,55.95
2023-04-13T09:13:01.987Z,55.79
2023-04-13T09:18:11.334Z,55.17
2023-04-13T09:23:22.816Z,54.39
2023-04-13T09:28:27.285Z,53.19
2023-04-13T09:33:36.308Z,52.84
2023-04-13T09:42:56.218Z,51.00
2023-04-13T09:48:03.891Z,50.19
2023-04-13T09:53:11.080Z,49.50
2023-04-13T09:58:18.391Z,46.52
2023-04-13T10:03:23.929Z,53.25
2023-04-13T10:08:37.424Z,54.99
2023-04-13T10:14:01.695Z,52.99
2023-04-13T10:19:09.399Z,49.42
2023-04-13T10:24:13.917Z,47.05
2023-04-13T10:29:30.091Z,43.28
2023-04-13T10:34:36.243Z,40.79
2023-04-13T10:39:39.813Z,40.98
2023-04-13T10:44:51.645Z,40.85
2023-04-13T10:49:54.953Z,40.47
2023-04-13T10:54:58.874Z,40.08
2023-04-13T11:00:04.559Z,38.54
2023-04-13T11:05:08.314Z,37.21
2023-04-13T11:10:12.963Z,37.66
2023-04-13T11:15:24.875Z,38.34
2023-04-13T11:20:33.324Z,37.03
2023-04-13T11:25:36.558Z,37.37
2023-04-13T11:30:39.599Z,37.43
2023-04-13T11:35:49.939Z,36.97
2023-04-13T11:46:31.575Z,37.37
2023-04-13T11:51:35.558Z,35.74
2023-04-13T11:56:38.899Z,34.78
2023-04-13T12:01:49.977Z,33.99
2023-04-13T12:06:56.468Z,35.07
2023-04-13T12:17:37.590Z,34.48
2023-04-13T12:22:51.729Z,34.94
2023-04-13T12:28:00.136Z,34.92
2023-04-13T12:33:03.883Z,34.24
2023-04-13T12:43:03.663Z,34.12
2023-04-13T12:48:08.773Z,33.65
2023-04-13T12:53:14.708Z,33.24
2023-04-13T12:58:17.997Z,33.19
2023-04-13T13:03:21.522Z,33.25
2023-04-13T13:08:24.676Z,33.23
2023-04-13T13:13:27.813Z,33.24
2023-04-13T13:18:42.763Z,33.20
2023-04-13T13:23:52.578Z,33.40
2023-04-13T13:28:55.775Z,33.85
2023-04-13T13:33:59.607Z,34.31
2023-04-13T13:39:09.146Z,34.96
2023-04-13T13:44:16.651Z,35.46
2023-04-13T13:49:20.714Z,35.98
2023-04-13T13:54:43.022Z,36.40
2023-04-13T13:59:49.286Z,36.41
2023-04-13T14:05:04.220Z,37.46
2023-04-13T14:10:12.160Z,37.45
2023-04-13T14:15:16.178Z,37.66
2023-04-13T14:20:20.305Z,38.19
2023-04-13T14:25:24.343Z,38.46
2023-04-13T14:30:28.721Z,38.80
2023-04-13T14:35:32.876Z,38.34
2023-04-13T14:40:37.250Z,38.45
2023-04-13T14:45:41.052Z,38.26
2023-04-13T14:50:45.339Z,38.45
2023-04-13T14:55:49.673Z,38.61
2023-04-13T15:00:54.451Z,38.99
2023-04-13T15:11:23.185Z,40.47
2023-04-13T15:16:29.602Z,40.91
2023-04-13T15:21:36.532Z,41.43
2023-04-13T15:26:41.888Z,41.31
2023-04-13T15:31:46.931Z,41.64
2023-04-13T15:36:50.781Z,42.25
2023-04-13T15:41:55.426Z,42.49
2023-04-13T15:47:03.288Z,42.55
2023-04-13T15:52:10.447Z,42.50
2023-04-13T15:57:16.605Z,42.22
2023-04-13T16:02:21.245Z,42.24
2023-04-13T16:07:28.295Z,43.17
2023-04-13T16:13:02.336Z,44.06
2023-04-13T16:18:20.235Z,44.69
2023-04-13T16:23:32.883Z,45.17
2023-04-13T16:28:40.689Z,45.59
2023-04-13T16:33:51.416Z,45.92
2023-04-13T16:42:59.416Z,46.04
2023-04-13T16:48:02.965Z,46.45
2023-04-13T16:53:06.637Z,47.34
2023-04-13T16:58:12.101Z,48.27
2023-04-13T17:03:15.939Z,49.05
2023-04-13T17:08:19.280Z,49.53
2023-04-13T17:13:22.848Z,50.01
2023-04-13T17:18:26.167Z,50.55
2023-04-13T17:23:29.597Z,51.02
2023-04-13T17:28:32.928Z,51.44
2023-04-13T17:33:36.296Z,51.80
2023-04-13T17:38:39.597Z,52.25
2023-04-13T17:43:42.832Z,52.47
2023-04-13T17:48:46.340Z,52.82
2023-04-13T17:53:50.010Z,53.30
2023-04-13T17:58:53.429Z,53.74
2023-04-13T18:03:59.612Z,54.21
2023-04-13T18:09:06.330Z,54.60
2023-04-13T18:14:12.422Z,54.76
2023-04-13T18:19:16.506Z,55.10
2023-04-13T18:24:20.060Z,54.73
2023-04-13T18:29:23.333Z,54.36
2023-04-13T18:34:29.923Z,54.08
2023-04-13T18:45:10.811Z,54.64
2023-04-13T18:50:14.127Z,54.97
2023-04-13T18:55:17.497Z,55.47
2023-04-13T19:00:21.202Z,55.81
2023-04-13T19:05:24.716Z,56.45
2023-04-13T19:10:28.573Z,56.66
2023-04-13T19:15:32.140Z,56.68
2023-04-13T19:20:35.679Z,57.11
2023-04-13T19:25:39.489Z,57.28
2023-04-13T19:30:42.964Z,57.70
2023-04-13T19:35:46.379Z,58.21
2023-04-13T19:40:49.712Z,58.44
2023-04-13T19:45:54.167Z,58.53
2023-04-13T19:50:57.489Z,58.85
2023-04-13T19:56:01.643Z,59.44
2023-04-13T20:01:07.868Z,59.84
2023-04-13T20:06:12.036Z,59.91
2023-04-13T20:11:15.522Z,60.19
2023-04-13T20:16:18.881Z,60.38
2023-04-13T20:21:22.150Z,60.72
2023-04-13T20:26:28.159Z,60.86
2023-04-13T20:31:33.256Z,61.23
2023-04-13T20:36:36.784Z,61.24
2023-04-13T20:41:40.157Z,61.29
2023-04-13T20:46:49.541Z,61.43
2023-04-13T20:51:57.373Z,61.84
2023-04-13T20:57:01.755Z,61.92
2023-04-13T21:02:05.672Z,61.94
2023-04-13T21:07:11.458Z,62.09
2023-04-13T21:12:14.813Z,62.15
2023-04-13T21:17:18.397Z,62.08
2023-04-13T21:22:22.104Z,62.30
2023-04-13T21:27:25.700Z,62.45
2023-04-13T21:32:29.063Z,62.51
2023-04-13T21:37:32.557Z,62.57
2023-04-13T21:42:37.384Z,62.51
2023-04-13T21:47:40.996Z,62.80
2023-04-13T21:52:44.355Z,63.13
2023-04-13T21:57:48.311Z,63.22
2023-04-13T22:03:18.857Z,63.37
2023-04-13T22:08:22.357Z,63.38
2023-04-13T22:13:26.262Z,63.67
2023-04-13T22:24:22.540Z,64.08
2023-04-13T22:29:26.099Z,64.64
2023-04-13T22:34:29.493Z,64.79
2023-04-13T22:39:33.179Z,64.78
2023-04-13T22:44:36.795Z,64.73
2023-04-13T22:49:40.100Z,64.94
2023-04-13T22:54:43.453Z,64.91
2023-04-13T22:59:47.120Z,65.07
2023-04-13T23:04:50.916Z,65.26
2023-04-13T23:09:54.386Z,65.42
2023-04-13T23:14:57.740Z,65.71
2023-04-13T23:20:01.219Z,65.99
2023-04-13T23:25:05.481Z,66.30
2023-04-13T23:30:09.372Z,66.49
2023-04-13T23:35:12.839Z,66.45
2023-04-13T23:40:16.538Z,66.58
2023-04-13T23:45:19.859Z,66.78
2023-04-13T23:50:23.236Z,66.75
2023-04-13T23:55:27.665Z,67.01
